sensor_id;sensor_type;location;lat;lon;timestamp;pressure;altitude;pressure_sealevel;temperature;humidity
8294;BME280;4185;41.506;24.938;2022-10-16T00:00:35;94123.25;;;11.06;74.93
8294;BME280;4185;41.506;24.938;2022-10-16T00:03:02;94122.03;;;11.07;75.57
8294;BME280;4185;41.506;24.938;2022-10-16T00:05:29;94127.94;;;11.05;74.79
8294;BME280;4185;41.506;24.938;2022-10-16T00:07:56;94124.19;;;11.03;74.79
8294;BME280;4185;41.506;24.938;2022-10-16T00:10:24;94120.00;;;11.02;74.76
8294;BME280;4185;41.506;24.938;2022-10-16T00:12:51;94122.72;;;11.02;74.22
8294;BME280;4185;41.506;24.938;2022-10-16T00:15:18;94122.72;;;11.02;75.38
8294;BME280;4185;41.506;24.938;2022-10-16T00:17:45;94128.44;;;11.04;74.82
8294;BME280;4185;41.506;24.938;2022-10-16T00:20:11;94125.44;;;11.02;74.72
8294;BME280;4185;41.506;24.938;2022-10-16T00:22:38;94125.91;;;11.00;75.06
8294;BME280;4185;41.506;24.938;2022-10-16T00:25:06;94122.72;;;11.02;74.26
8294;BME280;4185;41.506;24.938;2022-10-16T00:27:34;94124.34;;;10.94;74.41
8294;BME280;4185;41.506;24.938;2022-10-16T00:30:01;94125.06;;;10.94;74.52
8294;BME280;4185;41.506;24.938;2022-10-16T00:32:28;94121.06;;;10.90;74.94
8294;BME280;4185;41.506;24.938;2022-10-16T00:34:55;94118.34;;;10.90;74.99
8294;BME280;4185;41.506;24.938;2022-10-16T00:37:22;94122.66;;;10.82;75.17
8294;BME280;4185;41.506;24.938;2022-10-16T00:39:49;94112.75;;;10.79;74.58
8294;BME280;4185;41.506;24.938;2022-10-16T00:42:17;94121.53;;;10.74;75.78
8294;BME280;4185;41.506;24.938;2022-10-16T00:44:48;94120.72;;;10.68;75.42
8294;BME280;4185;41.506;24.938;2022-10-16T00:47:21;94115.47;;;10.64;75.37
8294;BME280;4185;41.506;24.938;2022-10-16T00:49:50;94122.88;;;10.64;75.78
8294;BME280;4185;41.506;24.938;2022-10-16T00:52:19;94129.25;;;10.61;75.66
8294;BME280;4185;41.506;24.938;2022-10-16T00:54:46;94132.63;;;10.56;76.47
8294;BME280;4185;41.506;24.938;2022-10-16T00:57:14;94127.38;;;10.52;75.68
8294;BME280;4185;41.506;24.938;2022-10-16T00:59:41;94125.31;;;10.47;76.30
8294;BME280;4185;41.506;24.938;2022-10-16T01:02:12;94120.94;;;10.50;76.26
8294;BME280;4185;41.506;24.938;2022-10-16T01:04:41;94125.13;;;10.51;76.49
8294;BME280;4185;41.506;24.938;2022-10-16T01:07:14;94124.03;;;10.43;76.76
8294;BME280;4185;41.506;24.938;2022-10-16T01:09:51;94129.06;;;10.35;76.33
8294;BME280;4185;41.506;24.938;2022-10-16T01:12:24;94131.72;;;10.30;77.19
8294;BME280;4185;41.506;24.938;2022-10-16T01:14:55;94133.66;;;10.29;76.81
8294;BME280;4185;41.506;24.938;2022-10-16T01:17:31;94141.81;;;10.29;76.37
8294;BME280;4185;41.506;24.938;2022-10-16T01:20:08;94140.50;;;10.25;76.73
8294;BME280;4185;41.506;24.938;2022-10-16T01:22:43;94141.22;;;10.25;76.11
8294;BME280;4185;41.506;24.938;2022-10-16T01:25:18;94132.63;;;10.27;75.91
8294;BME280;4185;41.506;24.938;2022-10-16T01:27:51;94137.13;;;10.15;76.24
8294;BME280;4185;41.506;24.938;2022-10-16T01:30:23;94141.69;;;10.09;76.90
8294;BME280;4185;41.506;24.938;2022-10-16T01:32:55;94143.66;;;10.09;76.96
8294;BME280;4185;41.506;24.938;2022-10-16T01:35:26;94146.66;;;10.11;77.60
8294;BME280;4185;41.506;24.938;2022-10-16T01:37:59;94146.94;;;10.13;77.38
8294;BME280;4185;41.506;24.938;2022-10-16T01:40:29;94151.44;;;10.16;77.58
8294;BME280;4185;41.506;24.938;2022-10-16T01:43:03;94148.34;;;10.08;76.98
8294;BME280;4185;41.506;24.938;2022-10-16T01:45:32;94148.03;;;10.06;77.26
8294;BME280;4185;41.506;24.938;2022-10-16T01:48:00;94147.94;;;10.01;77.34
8294;BME280;4185;41.506;24.938;2022-10-16T01:50:31;94156.06;;;10.01;76.82
8294;BME280;4185;41.506;24.938;2022-10-16T01:53:02;94160.44;;;9.98;77.48
8294;BME280;4185;41.506;24.938;2022-10-16T01:55:32;94166.63;;;9.99;77.61
8294;BME280;4185;41.506;24.938;2022-10-16T01:58:05;94167.22;;;10.03;77.53
8294;BME280;4185;41.506;24.938;2022-10-16T02:00:34;94170.19;;;10.05;77.44
8294;BME280;4185;41.506;24.938;2022-10-16T02:03:03;94166.75;;;10.04;77.50
8294;BME280;4185;41.506;24.938;2022-10-16T02:05:32;94167.22;;;10.03;76.98
8294;BME280;4185;41.506;24.938;2022-10-16T02:08:03;94178.97;;;10.00;77.98
8294;BME280;4185;41.506;24.938;2022-10-16T02:10:30;94169.06;;;9.97;78.21
8294;BME280;4185;41.506;24.938;2022-10-16T02:13:06;94167.56;;;9.96;77.60
8294;BME280;4185;41.506;24.938;2022-10-16T02:15:36;94173.94;;;9.93;77.79
8294;BME280;4185;41.506;24.938;2022-10-16T02:18:04;94170.94;;;9.91;77.83
8294;BME280;4185;41.506;24.938;2022-10-16T02:20:34;94172.78;;;9.84;78.20
8294;BME280;4185;41.506;24.938;2022-10-16T02:23:03;94181.34;;;9.68;78.40
8294;BME280;4185;41.506;24.938;2022-10-16T02:25:32;94182.50;;;9.53;78.94
8294;BME280;4185;41.506;24.938;2022-10-16T02:28:06;94169.88;;;9.50;79.31
8294;BME280;4185;41.506;24.938;2022-10-16T02:30:36;94170.03;;;9.46;79.46
8294;BME280;4185;41.506;24.938;2022-10-16T02:33:08;94177.88;;;9.44;79.34
8294;BME280;4185;41.506;24.938;2022-10-16T02:35:37;94178.47;;;9.48;79.33
8294;BME280;4185;41.506;24.938;2022-10-16T02:38:05;94183.91;;;9.48;79.11
8294;BME280;4185;41.506;24.938;2022-10-16T02:40:33;94184.78;;;9.45;78.93
8294;BME280;4185;41.506;24.938;2022-10-16T02:43:00;94186.16;;;9.50;77.54
8294;BME280;4185;41.506;24.938;2022-10-16T02:45:30;94193.22;;;9.47;77.73
8294;BME280;4185;41.506;24.938;2022-10-16T02:47:57;94193.56;;;9.40;77.95
8294;BME280;4185;41.506;24.938;2022-10-16T02:50:24;94197.09;;;9.32;78.48
8294;BME280;4185;41.506;24.938;2022-10-16T02:52:51;94201.19;;;9.27;78.37
8294;BME280;4185;41.506;24.938;2022-10-16T02:55:18;94197.44;;;9.25;78.36
8294;BME280;4185;41.506;24.938;2022-10-16T02:57:45;94194.00;;;9.15;78.02
8294;BME280;4185;41.506;24.938;2022-10-16T03:00:14;94206.06;;;9.14;78.00
8294;BME280;4185;41.506;24.938;2022-10-16T03:02:43;94211.94;;;9.13;77.61
8294;BME280;4185;41.506;24.938;2022-10-16T03:05:10;94209.88;;;9.08;78.63
8294;BME280;4185;41.506;24.938;2022-10-16T03:07:37;94213.69;;;8.92;79.30
8294;BME280;4185;41.506;24.938;2022-10-16T03:10:05;94213.41;;;8.81;78.79
8294;BME280;4185;41.506;24.938;2022-10-16T03:12:32;94219.13;;;8.83;79.01
8294;BME280;4185;41.506;24.938;2022-10-16T03:14:59;94217.78;;;8.79;79.63
8294;BME280;4185;41.506;24.938;2022-10-16T03:17:26;94218.53;;;8.79;79.08
8294;BME280;4185;41.506;24.938;2022-10-16T03:19:54;94220.06;;;8.71;79.29
8294;BME280;4185;41.506;24.938;2022-10-16T03:22:21;94228.69;;;8.60;79.40
8294;BME280;4185;41.506;24.938;2022-10-16T03:24:47;94231.50;;;8.66;79.03
8294;BME280;4185;41.506;24.938;2022-10-16T03:27:14;94227.47;;;8.61;79.09
8294;BME280;4185;41.506;24.938;2022-10-16T03:29:41;94230.94;;;8.62;78.70
8294;BME280;4185;41.506;24.938;2022-10-16T03:32:08;94226.13;;;8.57;78.17
8294;BME280;4185;41.506;24.938;2022-10-16T03:34:35;94228.84;;;8.57;78.21
8294;BME280;4185;41.506;24.938;2022-10-16T03:37:03;94232.63;;;8.50;78.34
8294;BME280;4185;41.506;24.938;2022-10-16T03:39:30;94235.16;;;8.45;78.40
8294;BME280;4185;41.506;24.938;2022-10-16T03:41:57;94236.81;;;8.42;78.01
8294;BME280;4185;41.506;24.938;2022-10-16T03:44:24;94233.53;;;8.38;78.32
8294;BME280;4185;41.506;24.938;2022-10-16T03:46:50;94235.94;;;8.36;78.07
8294;BME280;4185;41.506;24.938;2022-10-16T03:49:17;94239.41;;;8.37;77.68
8294;BME280;4185;41.506;24.938;2022-10-16T03:51:44;94241.50;;;8.33;77.85
8294;BME280;4185;41.506;24.938;2022-10-16T03:54:12;94244.81;;;8.28;77.59
8294;BME280;4185;41.506;24.938;2022-10-16T03:56:39;94245.69;;;8.16;78.00
8294;BME280;4185;41.506;24.938;2022-10-16T03:59:06;94248.56;;;8.03;77.71
8294;BME280;4185;41.506;24.938;2022-10-16T04:01:33;94250.34;;;7.97;78.29
8294;BME280;4185;41.506;24.938;2022-10-16T04:04:00;94255.00;;;7.97;78.24
8294;BME280;4185;41.506;24.938;2022-10-16T04:06:27;94250.03;;;7.77;78.22
8294;BME280;4185;41.506;24.938;2022-10-16T04:08:53;94249.56;;;7.79;78.47
8294;BME280;4185;41.506;24.938;2022-10-16T04:11:22;94247.78;;;7.76;78.56
8294;BME280;4185;41.506;24.938;2022-10-16T04:13:48;94245.53;;;7.74;78.29
8294;BME280;4185;41.506;24.938;2022-10-16T04:16:15;94243.53;;;7.75;78.08
8294;BME280;4185;41.506;24.938;2022-10-16T04:18:42;94249.25;;;7.77;77.99
8294;BME280;4185;41.506;24.938;2022-10-16T04:21:09;94245.06;;;7.76;77.57
8294;BME280;4185;41.506;24.938;2022-10-16T04:23:36;94244.59;;;7.68;77.75
8294;BME280;4185;41.506;24.938;2022-10-16T04:26:03;94251.66;;;7.66;77.54
8294;BME280;4185;41.506;24.938;2022-10-16T04:28:31;94256.63;;;7.67;77.46
8294;BME280;4185;41.506;24.938;2022-10-16T04:30:58;94256.31;;;7.65;77.71
8294;BME280;4185;41.506;24.938;2022-10-16T04:33:25;94262.13;;;7.55;77.81
8294;BME280;4185;41.506;24.938;2022-10-16T04:35:56;94258.69;;;7.45;78.07
8294;BME280;4185;41.506;24.938;2022-10-16T04:38:24;94264.81;;;7.36;77.89
8294;BME280;4185;41.506;24.938;2022-10-16T04:40:51;94256.97;;;7.29;77.79
8294;BME280;4185;41.506;24.938;2022-10-16T04:43:18;94260.13;;;7.28;77.55
8294;BME280;4185;41.506;24.938;2022-10-16T04:45:46;94266.88;;;7.32;77.54
8294;BME280;4185;41.506;24.938;2022-10-16T04:48:13;94268.53;;;7.30;77.84
8294;BME280;4185;41.506;24.938;2022-10-16T04:50:40;94265.88;;;7.39;77.11
8294;BME280;4185;41.506;24.938;2022-10-16T04:53:07;94272.91;;;7.36;77.31
8294;BME280;4185;41.506;24.938;2022-10-16T04:55:34;94275.94;;;7.38;77.45
8294;BME280;4185;41.506;24.938;2022-10-16T04:58:01;94271.41;;;7.35;77.42
8294;BME280;4185;41.506;24.938;2022-10-16T05:00:28;94276.97;;;7.32;77.45
8294;BME280;4185;41.506;24.938;2022-10-16T05:02:56;94282.19;;;7.26;77.88
8294;BME280;4185;41.506;24.938;2022-10-16T05:05:25;94275.56;;;7.27;77.63
8294;BME280;4185;41.506;24.938;2022-10-16T05:07:52;94283.41;;;7.34;77.74
8294;BME280;4185;41.506;24.938;2022-10-16T05:10:19;94283.84;;;7.33;76.74
8294;BME280;4185;41.506;24.938;2022-10-16T05:12:46;94281.88;;;7.24;76.78
8294;BME280;4185;41.506;24.938;2022-10-16T05:15:13;94294.47;;;7.18;77.61
8294;BME280;4185;41.506;24.938;2022-10-16T05:17:40;94300.59;;;7.19;77.79
8294;BME280;4185;41.506;24.938;2022-10-16T05:20:08;94300.91;;;7.21;78.04
8294;BME280;4185;41.506;24.938;2022-10-16T05:22:35;94301.41;;;7.28;78.28
8294;BME280;4185;41.506;24.938;2022-10-16T05:25:03;94307.72;;;7.34;77.67
8294;BME280;4185;41.506;24.938;2022-10-16T05:27:29;94312.09;;;7.41;77.28
8294;BME280;4185;41.506;24.938;2022-10-16T05:29:56;94307.16;;;7.39;77.81
8294;BME280;4185;41.506;24.938;2022-10-16T05:32:23;94312.81;;;7.32;78.40
8294;BME280;4185;41.506;24.938;2022-10-16T05:34:50;94319.03;;;7.42;78.24
8294;BME280;4185;41.506;24.938;2022-10-16T05:37:18;94316.19;;;7.46;77.87
8294;BME280;4185;41.506;24.938;2022-10-16T05:39:45;94307.78;;;7.43;77.97
8294;BME280;4185;41.506;24.938;2022-10-16T05:42:12;94312.31;;;7.56;77.94
8294;BME280;4185;41.506;24.938;2022-10-16T05:44:39;94320.44;;;7.65;77.77
8294;BME280;4185;41.506;24.938;2022-10-16T05:47:06;94327.25;;;7.69;78.27
8294;BME280;4185;41.506;24.938;2022-10-16T05:49:33;94317.50;;;7.81;78.49
8294;BME280;4185;41.506;24.938;2022-10-16T05:52:00;94315.25;;;7.88;78.12
8294;BME280;4185;41.506;24.938;2022-10-16T05:54:28;94320.38;;;7.86;78.57
8294;BME280;4185;41.506;24.938;2022-10-16T05:56:55;94319.59;;;7.86;78.77
8294;BME280;4185;41.506;24.938;2022-10-16T05:59:22;94326.50;;;7.87;79.00
8294;BME280;4185;41.506;24.938;2022-10-16T06:01:49;94327.00;;;7.94;78.64
8294;BME280;4185;41.506;24.938;2022-10-16T06:04:15;94323.53;;;8.03;78.51
8294;BME280;4185;41.506;24.938;2022-10-16T06:06:42;94317.81;;;7.92;79.01
8294;BME280;4185;41.506;24.938;2022-10-16T06:09:09;94317.94;;;7.88;79.20
8294;BME280;4185;41.506;24.938;2022-10-16T06:11:38;94322.16;;;7.98;78.99
8294;BME280;4185;41.506;24.938;2022-10-16T06:14:04;94326.25;;;8.03;78.84
8294;BME280;4185;41.506;24.938;2022-10-16T06:16:33;94323.53;;;8.03;78.72
8294;BME280;4185;41.506;24.938;2022-10-16T06:19:01;94324.44;;;8.00;78.87
8294;BME280;4185;41.506;24.938;2022-10-16T06:21:29;94330.44;;;8.04;79.14
8294;BME280;4185;41.506;24.938;2022-10-16T06:23:57;94329.84;;;8.09;78.91
8294;BME280;4185;41.506;24.938;2022-10-16T06:26:25;94326.56;;;8.14;79.11
8294;BME280;4185;41.506;24.938;2022-10-16T06:28:55;94327.63;;;8.16;79.66
8294;BME280;4185;41.506;24.938;2022-10-16T06:31:22;94333.50;;;8.15;79.54
8294;BME280;4185;41.506;24.938;2022-10-16T06:33:53;94337.69;;;8.16;79.66
8294;BME280;4185;41.506;24.938;2022-10-16T06:36:20;94338.31;;;8.20;79.41
8294;BME280;4185;41.506;24.938;2022-10-16T06:38:47;94339.69;;;8.33;79.41
8294;BME280;4185;41.506;24.938;2022-10-16T06:41:16;94338.94;;;8.42;78.98
8294;BME280;4185;41.506;24.938;2022-10-16T06:43:43;94347.06;;;8.51;78.94
8294;BME280;4185;41.506;24.938;2022-10-16T06:46:13;94341.97;;;8.62;78.39
8294;BME280;4185;41.506;24.938;2022-10-16T06:48:40;94339.84;;;8.75;78.52
8294;BME280;4185;41.506;24.938;2022-10-16T06:51:10;94333.53;;;8.69;77.76
8294;BME280;4185;41.506;24.938;2022-10-16T06:53:38;94335.59;;;8.83;78.33
8294;BME280;4185;41.506;24.938;2022-10-16T06:56:09;94335.91;;;8.94;77.66
8294;BME280;4185;41.506;24.938;2022-10-16T06:58:36;94329.41;;;9.01;78.10
8294;BME280;4185;41.506;24.938;2022-10-16T07:01:04;94331.97;;;9.04;77.72
8294;BME280;4185;41.506;24.938;2022-10-16T07:03:32;94328.94;;;9.11;77.72
8294;BME280;4185;41.506;24.938;2022-10-16T07:06:01;94331.91;;;9.22;77.67
8294;BME280;4185;41.506;24.938;2022-10-16T07:08:30;94327.66;;;9.39;77.89
8294;BME280;4185;41.506;24.938;2022-10-16T07:10:59;94332.41;;;9.53;77.93
8294;BME280;4185;41.506;24.938;2022-10-16T07:13:26;94334.19;;;9.65;77.46
8294;BME280;4185;41.506;24.938;2022-10-16T07:15:53;94324.50;;;9.73;75.67
8294;BME280;4185;41.506;24.938;2022-10-16T07:18:20;94329.13;;;9.82;76.01
8294;BME280;4185;41.506;24.938;2022-10-16T07:20:48;94332.47;;;10.01;75.49
8294;BME280;4185;41.506;24.938;2022-10-16T07:23:15;94324.88;;;10.14;74.70
8294;BME280;4185;41.506;24.938;2022-10-16T07:25:42;94325.13;;;10.25;74.31
8294;BME280;4185;41.506;24.938;2022-10-16T07:28:09;94325.22;;;10.30;72.92
8294;BME280;4185;41.506;24.938;2022-10-16T07:30:36;94328.53;;;10.34;71.99
8294;BME280;4185;41.506;24.938;2022-10-16T07:33:03;94321.50;;;10.42;72.66
8294;BME280;4185;41.506;24.938;2022-10-16T07:35:30;94311.34;;;10.52;72.62
8294;BME280;4185;41.506;24.938;2022-10-16T07:37:58;94320.53;;;10.69;72.02
8294;BME280;4185;41.506;24.938;2022-10-16T07:40:25;94312.31;;;10.78;69.89
8294;BME280;4185;41.506;24.938;2022-10-16T07:42:53;94306.22;;;10.83;71.07
8294;BME280;4185;41.506;24.938;2022-10-16T07:45:20;94319.38;;;10.99;68.43
8294;BME280;4185;41.506;24.938;2022-10-16T07:47:47;94316.56;;;11.08;67.05
8294;BME280;4185;41.506;24.938;2022-10-16T07:50:14;94314.31;;;11.21;67.06
8294;BME280;4185;41.506;24.938;2022-10-16T07:52:40;94320.13;;;11.29;64.15
8294;BME280;4185;41.506;24.938;2022-10-16T07:55:09;94324.03;;;11.42;65.41
8294;BME280;4185;41.506;24.938;2022-10-16T07:57:36;94318.50;;;11.51;64.46
8294;BME280;4185;41.506;24.938;2022-10-16T08:00:03;94315.59;;;11.55;63.21
8294;BME280;4185;41.506;24.938;2022-10-16T08:02:31;94316.25;;;11.64;62.55
8294;BME280;4185;41.506;24.938;2022-10-16T08:04:58;94311.63;;;11.70;61.42
8294;BME280;4185;41.506;24.938;2022-10-16T08:07:25;94309.09;;;11.81;62.51
8294;BME280;4185;41.506;24.938;2022-10-16T08:09:51;94304.00;;;11.89;61.66
8294;BME280;4185;41.506;24.938;2022-10-16T08:12:20;94302.91;;;12.01;61.36
8294;BME280;4185;41.506;24.938;2022-10-16T08:14:46;94308.03;;;12.13;60.02
8294;BME280;4185;41.506;24.938;2022-10-16T08:17:14;94297.22;;;12.19;59.57
8294;BME280;4185;41.506;24.938;2022-10-16T08:19:44;94304.25;;;12.25;59.08
8294;BME280;4185;41.506;24.938;2022-10-16T08:22:11;94299.41;;;12.35;58.82
8294;BME280;4185;41.506;24.938;2022-10-16T08:24:38;94296.63;;;12.50;59.22
8294;BME280;4185;41.506;24.938;2022-10-16T08:27:05;94281.44;;;12.69;58.17
8294;BME280;4185;41.506;24.938;2022-10-16T08:29:33;94301.44;;;12.86;61.81
8294;BME280;4185;41.506;24.938;2022-10-16T08:32:00;94298.84;;;12.97;60.94
8294;BME280;4185;41.506;24.938;2022-10-16T08:34:27;94303.41;;;13.05;58.01
8294;BME280;4185;41.506;24.938;2022-10-16T08:36:54;94308.22;;;13.16;56.43
8294;BME280;4185;41.506;24.938;2022-10-16T08:39:21;94300.41;;;13.29;55.03
8294;BME280;4185;41.506;24.938;2022-10-16T08:42:05;94314.69;;;13.44;55.94
8294;BME280;4185;41.506;24.938;2022-10-16T08:44:58;94308.09;;;13.62;54.57
8294;BME280;4185;41.506;24.938;2022-10-16T08:47:39;94308.69;;;13.71;52.94
8294;BME280;4185;41.506;24.938;2022-10-16T08:50:10;94284.56;;;13.64;54.12
8294;BME280;4185;41.506;24.938;2022-10-16T08:52:40;94301.03;;;13.81;54.11
8294;BME280;4185;41.506;24.938;2022-10-16T08:55:18;94307.06;;;13.90;52.08
8294;BME280;4185;41.506;24.938;2022-10-16T08:57:49;94308.31;;;13.89;51.70
8294;BME280;4185;41.506;24.938;2022-10-16T09:00:18;94312.09;;;14.03;52.25
8294;BME280;4185;41.506;24.938;2022-10-16T09:02:49;94307.94;;;14.13;52.79
8294;BME280;4185;41.506;24.938;2022-10-16T09:08:22;94296.88;;;14.33;51.02
8294;BME280;4185;41.506;24.938;2022-10-16T09:10:56;94298.66;;;14.41;51.84
8294;BME280;4185;41.506;24.938;2022-10-16T09:13:29;94300.75;;;14.57;53.05
8294;BME280;4185;41.506;24.938;2022-10-16T09:16:10;94297.03;;;14.72;50.03
8294;BME280;4185;41.506;24.938;2022-10-16T09:18:43;94295.06;;;14.72;48.68
8294;BME280;4185;41.506;24.938;2022-10-16T09:21:16;94302.50;;;14.72;49.39
8294;BME280;4185;41.506;24.938;2022-10-16T09:23:45;94292.09;;;14.76;49.44
8294;BME280;4185;41.506;24.938;2022-10-16T09:26:14;94298.34;;;14.93;50.05
8294;BME280;4185;41.506;24.938;2022-10-16T09:28:43;94306.34;;;15.13;50.01
8294;BME280;4185;41.506;24.938;2022-10-16T09:31:15;94290.44;;;15.22;48.21
8294;BME280;4185;41.506;24.938;2022-10-16T09:33:47;94294.97;;;15.42;48.37
8294;BME280;4185;41.506;24.938;2022-10-16T09:36:15;94302.19;;;15.50;47.51
8294;BME280;4185;41.506;24.938;2022-10-16T09:38:42;94297.44;;;15.51;46.03
8294;BME280;4185;41.506;24.938;2022-10-16T09:41:16;94290.72;;;15.46;46.21
8294;BME280;4185;41.506;24.938;2022-10-16T09:43:48;94279.53;;;15.55;49.18
8294;BME280;4185;41.506;24.938;2022-10-16T09:46:27;94294.94;;;15.80;46.21
8294;BME280;4185;41.506;24.938;2022-10-16T09:48:56;94292.19;;;15.92;47.16
8294;BME280;4185;41.506;24.938;2022-10-16T09:51:25;94294.16;;;15.97;44.68
8294;BME280;4185;41.506;24.938;2022-10-16T09:53:56;94295.41;;;16.07;43.88
8294;BME280;4185;41.506;24.938;2022-10-16T09:56:24;94294.91;;;16.08;44.13
8294;BME280;4185;41.506;24.938;2022-10-16T09:58:53;94287.41;;;16.14;45.41
8294;BME280;4185;41.506;24.938;2022-10-16T10:01:20;94289.63;;;16.21;45.48
8294;BME280;4185;41.506;24.938;2022-10-16T10:03:50;94281.09;;;16.36;46.27
8294;BME280;4185;41.506;24.938;2022-10-16T10:06:26;94300.56;;;16.49;44.16
8294;BME280;4185;41.506;24.938;2022-10-16T10:09:00;94298.28;;;16.58;42.74
8294;BME280;4185;41.506;24.938;2022-10-16T10:11:47;94290.75;;;16.64;42.70
8294;BME280;4185;41.506;24.938;2022-10-16T10:14:23;94290.72;;;16.75;42.82
8294;BME280;4185;41.506;24.938;2022-10-16T10:16:52;94290.38;;;16.90;45.45
8294;BME280;4185;41.506;24.938;2022-10-16T10:19:29;94279.28;;;17.12;44.23
8294;BME280;4185;41.506;24.938;2022-10-16T10:21:55;94286.56;;;17.04;42.47
8294;BME280;4185;41.506;24.938;2022-10-16T10:24:22;94292.22;;;17.17;42.22
8294;BME280;4185;41.506;24.938;2022-10-16T10:26:55;94290.13;;;17.29;41.65
8294;BME280;4185;41.506;24.938;2022-10-16T10:29:44;94284.28;;;17.49;41.63
8294;BME280;4185;41.506;24.938;2022-10-16T10:32:22;94294.25;;;17.52;40.01
8294;BME280;4185;41.506;24.938;2022-10-16T10:35:06;94277.53;;;17.50;40.28
8294;BME280;4185;41.506;24.938;2022-10-16T10:37:47;94286.81;;;17.47;40.73
8294;BME280;4185;41.506;24.938;2022-10-16T10:40:27;94286.16;;;17.65;41.42
8294;BME280;4185;41.506;24.938;2022-10-16T10:43:01;94274.28;;;17.81;41.12
8294;BME280;4185;41.506;24.938;2022-10-16T10:45:38;94275.66;;;17.93;39.95
8294;BME280;4185;41.506;24.938;2022-10-16T10:48:19;94265.59;;;18.01;38.90
8294;BME280;4185;41.506;24.938;2022-10-16T10:50:57;94265.94;;;17.92;38.69
8294;BME280;4185;41.506;24.938;2022-10-16T10:53:33;94265.25;;;18.10;40.24
8294;BME280;4185;41.506;24.938;2022-10-16T10:56:11;94258.94;;;18.39;39.60
8294;BME280;4185;41.506;24.938;2022-10-16T10:58:57;94267.81;;;18.51;38.26
8294;BME280;4185;41.506;24.938;2022-10-16T11:01:31;94267.75;;;18.56;37.36
8294;BME280;4185;41.506;24.938;2022-10-16T11:04:15;94272.69;;;18.63;38.03
8294;BME280;4185;41.506;24.938;2022-10-16T11:06:55;94255.88;;;18.67;36.93
8294;BME280;4185;41.506;24.938;2022-10-16T11:09:25;94265.47;;;18.60;37.21
8294;BME280;4185;41.506;24.938;2022-10-16T11:11:57;94264.03;;;18.72;37.67
8294;BME280;4185;41.506;24.938;2022-10-16T11:14:30;94263.22;;;18.77;36.62
8294;BME280;4185;41.506;24.938;2022-10-16T11:17:04;94260.19;;;18.81;36.51
8294;BME280;4185;41.506;24.938;2022-10-16T11:19:38;94261.53;;;18.74;35.84
8294;BME280;4185;41.506;24.938;2022-10-16T11:22:13;94258.88;;;18.87;37.35
8294;BME280;4185;41.506;24.938;2022-10-16T11:24:46;94264.72;;;19.15;36.78
8294;BME280;4185;41.506;24.938;2022-10-16T11:27:17;94254.34;;;19.21;35.09
8294;BME280;4185;41.506;24.938;2022-10-16T11:29:51;94259.03;;;19.26;36.13
8294;BME280;4185;41.506;24.938;2022-10-16T11:32:24;94252.19;;;19.52;34.57
8294;BME280;4185;41.506;24.938;2022-10-16T11:34:54;94260.47;;;19.52;34.61
8294;BME280;4185;41.506;24.938;2022-10-16T11:37:29;94260.94;;;19.37;34.29
8294;BME280;4185;41.506;24.938;2022-10-16T11:40:05;94252.44;;;19.35;34.56
8294;BME280;4185;41.506;24.938;2022-10-16T11:42:41;94254.88;;;19.38;33.82
8294;BME280;4185;41.506;24.938;2022-10-16T11:45:19;94253.59;;;19.58;34.25
8294;BME280;4185;41.506;24.938;2022-10-16T11:47:57;94255.63;;;19.71;33.52
8294;BME280;4185;41.506;24.938;2022-10-16T11:50:30;94254.06;;;19.75;33.07
8294;BME280;4185;41.506;24.938;2022-10-16T11:53:03;94265.81;;;19.76;34.06
8294;BME280;4185;41.506;24.938;2022-10-16T11:55:34;94263.19;;;19.83;33.02
8294;BME280;4185;41.506;24.938;2022-10-16T11:58:06;94270.56;;;20.07;33.77
8294;BME280;4185;41.506;24.938;2022-10-16T12:00:40;94256.53;;;20.05;33.40
8294;BME280;4185;41.506;24.938;2022-10-16T12:03:15;94266.94;;;19.99;32.90
8294;BME280;4185;41.506;24.938;2022-10-16T12:05:55;94263.59;;;19.87;33.70
8294;BME280;4185;41.506;24.938;2022-10-16T12:08:26;94266.25;;;19.80;33.70
8294;BME280;4185;41.506;24.938;2022-10-16T12:10:53;94274.53;;;19.80;32.36
8294;BME280;4185;41.506;24.938;2022-10-16T12:13:31;94268.63;;;20.02;33.46
8294;BME280;4185;41.506;24.938;2022-10-16T12:16:07;94274.19;;;20.28;32.89
8294;BME280;4185;41.506;24.938;2022-10-16T12:18:47;94273.13;;;20.57;32.44
8294;BME280;4185;41.506;24.938;2022-10-16T12:21:16;94268.84;;;20.95;32.57
8294;BME280;4185;41.506;24.938;2022-10-16T12:23:49;94275.78;;;21.02;31.81
8294;BME280;4185;41.506;24.938;2022-10-16T12:26:24;94282.50;;;21.27;32.71
8294;BME280;4185;41.506;24.938;2022-10-16T12:28:52;94286.53;;;21.59;31.48
8294;BME280;4185;41.506;24.938;2022-10-16T12:31:20;94283.16;;;21.53;31.46
8294;BME280;4185;41.506;24.938;2022-10-16T12:34:02;94291.56;;;21.48;31.12
8294;BME280;4185;41.506;24.938;2022-10-16T12:36:32;94296.69;;;21.10;31.57
8294;BME280;4185;41.506;24.938;2022-10-16T12:39:01;94287.75;;;21.04;31.61
8294;BME280;4185;41.506;24.938;2022-10-16T12:41:30;94295.19;;;21.09;31.77
8294;BME280;4185;41.506;24.938;2022-10-16T12:43:58;94289.44;;;21.20;32.06
8294;BME280;4185;41.506;24.938;2022-10-16T12:46:38;94294.69;;;21.44;31.61
8294;BME280;4185;41.506;24.938;2022-10-16T12:49:17;94294.03;;;21.38;31.17
8294;BME280;4185;41.506;24.938;2022-10-16T12:51:46;94287.91;;;21.32;30.73
8294;BME280;4185;41.506;24.938;2022-10-16T12:54:17;94295.50;;;21.52;31.62
8294;BME280;4185;41.506;24.938;2022-10-16T12:56:56;94292.16;;;21.33;31.51
8294;BME280;4185;41.506;24.938;2022-10-16T12:59:35;94305.19;;;21.12;32.96
8294;BME280;4185;41.506;24.938;2022-10-16T13:02:18;94304.94;;;21.23;31.79
8294;BME280;4185;41.506;24.938;2022-10-16T13:05:11;94308.28;;;21.09;31.41
8294;BME280;4185;41.506;24.938;2022-10-16T13:07:52;94311.72;;;21.35;31.32
8294;BME280;4185;41.506;24.938;2022-10-16T13:10:25;94307.97;;;21.46;31.13
8294;BME280;4185;41.506;24.938;2022-10-16T13:16:02;94304.53;;;21.53;30.23
8294;BME280;4185;41.506;24.938;2022-10-16T13:18:40;94310.97;;;21.35;30.53
8294;BME280;4185;41.506;24.938;2022-10-16T13:21:25;94301.78;;;21.06;30.80
8294;BME280;4185;41.506;24.938;2022-10-16T13:24:03;94306.22;;;21.09;31.04
8294;BME280;4185;41.506;24.938;2022-10-16T13:26:42;94313.47;;;20.99;30.94
8294;BME280;4185;41.506;24.938;2022-10-16T13:29:13;94308.81;;;21.07;31.93
8294;BME280;4185;41.506;24.938;2022-10-16T13:31:40;94312.78;;;21.32;32.22
8294;BME280;4185;41.506;24.938;2022-10-16T13:34:12;94316.16;;;21.38;32.28
8294;BME280;4185;41.506;24.938;2022-10-16T13:36:44;94313.69;;;20.88;31.34